sensor_id;sensor_type;location;lat;lon;timestamp;P1;durP1;ratioP1;P2;durP2;ratioP2
48861;SDS011;34681;49.188;-0.374;2022-10-13T00:00:30;7.80;;;7.13;;
48861;SDS011;34681;49.188;-0.374;2022-10-13T00:02:59;8.43;;;7.60;;
48861;SDS011;34681;49.188;-0.374;2022-10-13T00:05:26;10.23;;;7.90;;
48861;SDS011;34681;49.188;-0.374;2022-10-13T00:07:52;8.60;;;7.70;;
48861;SDS011;34681;49.188;-0.374;2022-10-13T00:10:17;9.50;;;7.53;;
48861;SDS011;34681;49.188;-0.374;2022-10-13T00:12:43;8.77;;;7.97;;
48861;SDS011;34681;49.188;-0.374;2022-10-13T00:15:08;9.10;;;8.20;;
48861;SDS011;34681;49.188;-0.374;2022-10-13T00:17:34;9.40;;;8.50;;
48861;SDS011;34681;49.188;-0.374;2022-10-13T00:20:03;9.43;;;8.43;;
48861;SDS011;34681;49.188;-0.374;2022-10-13T00:22:30;10.97;;;7.90;;
48861;SDS011;34681;49.188;-0.374;2022-10-13T00:24:56;9.53;;;7.27;;
48861;SDS011;34681;49.188;-0.374;2022-10-13T00:27:21;8.20;;;7.50;;
48861;SDS011;34681;49.188;-0.374;2022-10-13T00:29:47;8.77;;;7.77;;
48861;SDS011;34681;49.188;-0.374;2022-10-13T00:32:12;9.53;;;8.67;;
48861;SDS011;34681;49.188;-0.374;2022-10-13T00:34:38;8.70;;;7.83;;
48861;SDS011;34681;49.188;-0.374;2022-10-13T00:37:03;9.40;;;7.57;;
48861;SDS011;34681;49.188;-0.374;2022-10-13T00:39:29;9.70;;;7.73;;
48861;SDS011;34681;49.188;-0.374;2022-10-13T00:41:56;8.50;;;7.80;;
48861;SDS011;34681;49.188;-0.374;2022-10-13T00:47:32;8.27;;;7.47;;
48861;SDS011;34681;49.188;-0.374;2022-10-13T00:50:01;9.90;;;8.37;;
48861;SDS011;34681;49.188;-0.374;2022-10-13T00:52:27;9.33;;;7.73;;
48861;SDS011;34681;49.188;-0.374;2022-10-13T00:54:54;9.37;;;8.43;;
48861;SDS011;34681;49.188;-0.374;2022-10-13T00:57:20;9.50;;;8.03;;
48861;SDS011;34681;49.188;-0.374;2022-10-13T00:59:46;8.80;;;7.97;;
48861;SDS011;34681;49.188;-0.374;2022-10-13T01:02:12;8.60;;;7.83;;
48861;SDS011;34681;49.188;-0.374;2022-10-13T01:04:39;9.63;;;8.50;;
48861;SDS011;34681;49.188;-0.374;2022-10-13T01:07:08;9.23;;;8.23;;
48861;SDS011;34681;49.188;-0.374;2022-10-13T01:09:34;8.43;;;7.40;;
48861;SDS011;34681;49.188;-0.374;2022-10-13T01:14:37;11.77;;;7.93;;
48861;SDS011;34681;49.188;-0.374;2022-10-13T01:17:26;8.70;;;7.10;;
48861;SDS011;34681;49.188;-0.374;2022-10-13T01:23:23;7.40;;;6.80;;
48861;SDS011;34681;49.188;-0.374;2022-10-13T01:32:18;9.57;;;7.37;;
48861;SDS011;34681;49.188;-0.374;2022-10-13T01:35:09;8.53;;;7.43;;
48861;SDS011;34681;49.188;-0.374;2022-10-13T01:37:42;8.40;;;7.60;;
48861;SDS011;34681;49.188;-0.374;2022-10-13T01:40:24;9.30;;;8.43;;
48861;SDS011;34681;49.188;-0.374;2022-10-13T01:45:24;7.60;;;6.90;;
48861;SDS011;34681;49.188;-0.374;2022-10-13T01:47:56;7.63;;;7.03;;
48861;SDS011;34681;49.188;-0.374;2022-10-13T01:50:25;8.93;;;7.03;;
48861;SDS011;34681;49.188;-0.374;2022-10-13T01:52:52;8.27;;;7.50;;
48861;SDS011;34681;49.188;-0.374;2022-10-13T01:55:18;9.00;;;8.30;;
48861;SDS011;34681;49.188;-0.374;2022-10-13T01:57:44;7.70;;;7.00;;
48861;SDS011;34681;49.188;-0.374;2022-10-13T02:00:11;8.97;;;7.77;;
48861;SDS011;34681;49.188;-0.374;2022-10-13T02:02:41;8.73;;;7.50;;
48861;SDS011;34681;49.188;-0.374;2022-10-13T02:07:55;8.17;;;7.47;;
48861;SDS011;34681;49.188;-0.374;2022-10-13T02:10:46;8.60;;;7.90;;
48861;SDS011;34681;49.188;-0.374;2022-10-13T02:13:20;10.17;;;7.60;;
48861;SDS011;34681;49.188;-0.374;2022-10-13T02:15:50;8.30;;;7.60;;
48861;SDS011;34681;49.188;-0.374;2022-10-13T02:18:20;8.40;;;7.67;;
48861;SDS011;34681;49.188;-0.374;2022-10-13T02:20:49;7.43;;;6.70;;
48861;SDS011;34681;49.188;-0.374;2022-10-13T02:23:15;8.37;;;7.60;;
48861;SDS011;34681;49.188;-0.374;2022-10-13T02:25:42;8.07;;;7.27;;
48861;SDS011;34681;49.188;-0.374;2022-10-13T02:28:10;7.80;;;7.10;;
48861;SDS011;34681;49.188;-0.374;2022-10-13T02:30:38;8.00;;;7.20;;
48861;SDS011;34681;49.188;-0.374;2022-10-13T02:33:05;8.23;;;6.63;;
48861;SDS011;34681;49.188;-0.374;2022-10-13T02:35:31;8.33;;;7.47;;
48861;SDS011;34681;49.188;-0.374;2022-10-13T02:37:57;9.10;;;7.53;;
48861;SDS011;34681;49.188;-0.374;2022-10-13T02:40:23;9.30;;;6.80;;
48861;SDS011;34681;49.188;-0.374;2022-10-13T02:42:48;7.40;;;6.67;;
48861;SDS011;34681;49.188;-0.374;2022-10-13T02:45:14;8.97;;;7.13;;
48861;SDS011;34681;49.188;-0.374;2022-10-13T02:47:39;7.40;;;6.63;;
48861;SDS011;34681;49.188;-0.374;2022-10-13T02:50:05;8.83;;;7.10;;
48861;SDS011;34681;49.188;-0.374;2022-10-13T02:52:30;10.43;;;8.10;;
48861;SDS011;34681;49.188;-0.374;2022-10-13T02:54:56;8.67;;;7.00;;
48861;SDS011;34681;49.188;-0.374;2022-10-13T02:57:21;13.13;;;7.47;;
48861;SDS011;34681;49.188;-0.374;2022-10-13T02:59:47;10.97;;;7.57;;
48861;SDS011;34681;49.188;-0.374;2022-10-13T03:02:12;8.13;;;7.33;;
48861;SDS011;34681;49.188;-0.374;2022-10-13T03:04:38;7.73;;;7.03;;
48861;SDS011;34681;49.188;-0.374;2022-10-13T03:07:03;9.67;;;7.23;;
48861;SDS011;34681;49.188;-0.374;2022-10-13T03:09:28;8.30;;;7.50;;
48861;SDS011;34681;49.188;-0.374;2022-10-13T03:11:54;9.00;;;6.73;;
48861;SDS011;34681;49.188;-0.374;2022-10-13T03:14:19;7.10;;;6.43;;
48861;SDS011;34681;49.188;-0.374;2022-10-13T03:16:45;8.47;;;7.47;;
48861;SDS011;34681;49.188;-0.374;2022-10-13T03:19:10;8.50;;;7.30;;
48861;SDS011;34681;49.188;-0.374;2022-10-13T03:21:36;8.40;;;7.57;;
48861;SDS011;34681;49.188;-0.374;2022-10-13T03:24:02;8.30;;;7.53;;
48861;SDS011;34681;49.188;-0.374;2022-10-13T03:26:29;8.70;;;7.27;;
48861;SDS011;34681;49.188;-0.374;2022-10-13T03:28:55;8.90;;;7.50;;
48861;SDS011;34681;49.188;-0.374;2022-10-13T03:31:21;8.13;;;7.03;;
48861;SDS011;34681;49.188;-0.374;2022-10-13T03:33:46;9.77;;;8.77;;
48861;SDS011;34681;49.188;-0.374;2022-10-13T03:36:12;8.50;;;7.57;;
48861;SDS011;34681;49.188;-0.374;2022-10-13T03:38:37;10.13;;;8.17;;
48861;SDS011;34681;49.188;-0.374;2022-10-13T03:41:10;8.67;;;7.73;;
48861;SDS011;34681;49.188;-0.374;2022-10-13T03:43:37;9.83;;;7.77;;
48861;SDS011;34681;49.188;-0.374;2022-10-13T03:46:04;9.83;;;8.90;;
48861;SDS011;34681;49.188;-0.374;2022-10-13T03:48:30;8.07;;;7.37;;
48861;SDS011;34681;49.188;-0.374;2022-10-13T03:50:57;10.87;;;8.70;;
48861;SDS011;34681;49.188;-0.374;2022-10-13T03:53:22;10.60;;;9.43;;
48861;SDS011;34681;49.188;-0.374;2022-10-13T03:55:52;12.63;;;8.97;;
48861;SDS011;34681;49.188;-0.374;2022-10-13T03:58:19;10.93;;;9.80;;
48861;SDS011;34681;49.188;-0.374;2022-10-13T04:00:47;13.10;;;10.10;;
48861;SDS011;34681;49.188;-0.374;2022-10-13T04:03:13;10.73;;;9.77;;
48861;SDS011;34681;49.188;-0.374;2022-10-13T04:05:39;11.50;;;10.30;;
48861;SDS011;34681;49.188;-0.374;2022-10-13T04:08:04;13.13;;;10.30;;
48861;SDS011;34681;49.188;-0.374;2022-10-13T04:10:30;10.67;;;9.57;;
48861;SDS011;34681;49.188;-0.374;2022-10-13T04:12:56;10.73;;;9.73;;
48861;SDS011;34681;49.188;-0.374;2022-10-13T04:15:21;12.03;;;10.17;;
48861;SDS011;34681;49.188;-0.374;2022-10-13T04:17:46;11.37;;;10.23;;
48861;SDS011;34681;49.188;-0.374;2022-10-13T04:20:12;11.93;;;10.80;;
48861;SDS011;34681;49.188;-0.374;2022-10-13T04:22:37;13.87;;;9.70;;
48861;SDS011;34681;49.188;-0.374;2022-10-13T04:25:03;10.20;;;9.20;;
48861;SDS011;34681;49.188;-0.374;2022-10-13T04:27:29;10.73;;;9.63;;
48861;SDS011;34681;49.188;-0.374;2022-10-13T04:29:54;10.90;;;9.80;;
48861;SDS011;34681;49.188;-0.374;2022-10-13T04:32:20;11.37;;;9.50;;
48861;SDS011;34681;49.188;-0.374;2022-10-13T04:34:45;9.90;;;8.93;;
48861;SDS011;34681;49.188;-0.374;2022-10-13T04:37:11;12.37;;;10.60;;
48861;SDS011;34681;49.188;-0.374;2022-10-13T04:39:36;10.33;;;9.23;;
48861;SDS011;34681;49.188;-0.374;2022-10-13T04:42:02;9.40;;;8.57;;
48861;SDS011;34681;49.188;-0.374;2022-10-13T04:44:27;10.07;;;9.17;;
48861;SDS011;34681;49.188;-0.374;2022-10-13T04:46:53;9.73;;;8.70;;
48861;SDS011;34681;49.188;-0.374;2022-10-13T04:49:18;9.67;;;8.87;;
48861;SDS011;34681;49.188;-0.374;2022-10-13T04:51:44;10.87;;;9.77;;
48861;SDS011;34681;49.188;-0.374;2022-10-13T04:54:09;9.90;;;8.90;;
48861;SDS011;34681;49.188;-0.374;2022-10-13T04:56:35;11.57;;;9.07;;
48861;SDS011;34681;49.188;-0.374;2022-10-13T04:59:01;11.00;;;9.90;;
48861;SDS011;34681;49.188;-0.374;2022-10-13T05:01:29;9.50;;;8.60;;
48861;SDS011;34681;49.188;-0.374;2022-10-13T05:03:56;15.33;;;9.93;;
48861;SDS011;34681;49.188;-0.374;2022-10-13T05:06:25;10.10;;;9.10;;
48861;SDS011;34681;49.188;-0.374;2022-10-13T05:08:52;10.77;;;9.77;;
48861;SDS011;34681;49.188;-0.374;2022-10-13T05:11:18;11.73;;;9.80;;
48861;SDS011;34681;49.188;-0.374;2022-10-13T05:13:44;8.93;;;8.03;;
48861;SDS011;34681;49.188;-0.374;2022-10-13T05:16:11;10.23;;;8.53;;
48861;SDS011;34681;49.188;-0.374;2022-10-13T05:18:39;9.33;;;8.00;;
48861;SDS011;34681;49.188;-0.374;2022-10-13T05:21:14;9.13;;;8.20;;
48861;SDS011;34681;49.188;-0.374;2022-10-13T05:23:42;9.20;;;8.30;;
48861;SDS011;34681;49.188;-0.374;2022-10-13T05:26:08;12.30;;;8.00;;
48861;SDS011;34681;49.188;-0.374;2022-10-13T05:28:35;9.53;;;8.50;;
48861;SDS011;34681;49.188;-0.374;2022-10-13T05:31:11;8.97;;;8.17;;
48861;SDS011;34681;49.188;-0.374;2022-10-13T05:33:41;8.23;;;7.23;;
48861;SDS011;34681;49.188;-0.374;2022-10-13T05:36:14;8.47;;;7.57;;
48861;SDS011;34681;49.188;-0.374;2022-10-13T05:38:41;10.23;;;7.80;;
48861;SDS011;34681;49.188;-0.374;2022-10-13T05:41:09;8.73;;;7.93;;
48861;SDS011;34681;49.188;-0.374;2022-10-13T05:43:39;10.70;;;8.53;;
48861;SDS011;34681;49.188;-0.374;2022-10-13T05:46:06;7.90;;;7.20;;
48861;SDS011;34681;49.188;-0.374;2022-10-13T05:48:32;7.17;;;6.67;;
48861;SDS011;34681;49.188;-0.374;2022-10-13T05:50:58;6.30;;;5.80;;
48861;SDS011;34681;49.188;-0.374;2022-10-13T05:53:29;7.17;;;6.47;;
48861;SDS011;34681;49.188;-0.374;2022-10-13T05:55:59;6.27;;;5.70;;
48861;SDS011;34681;49.188;-0.374;2022-10-13T05:58:39;7.80;;;7.00;;
48861;SDS011;34681;49.188;-0.374;2022-10-13T06:01:13;7.07;;;6.37;;
48861;SDS011;34681;49.188;-0.374;2022-10-13T06:03:42;6.67;;;5.90;;
48861;SDS011;34681;49.188;-0.374;2022-10-13T06:06:10;7.33;;;5.67;;
48861;SDS011;34681;49.188;-0.374;2022-10-13T06:08:35;7.80;;;5.57;;
48861;SDS011;34681;49.188;-0.374;2022-10-13T06:11:02;8.53;;;6.87;;
48861;SDS011;34681;49.188;-0.374;2022-10-13T06:13:28;6.23;;;5.73;;
48861;SDS011;34681;49.188;-0.374;2022-10-13T06:15:53;7.10;;;5.63;;
48861;SDS011;34681;49.188;-0.374;2022-10-13T06:18:19;11.50;;;6.40;;
48861;SDS011;34681;49.188;-0.374;2022-10-13T06:20:44;7.40;;;6.30;;
48861;SDS011;34681;49.188;-0.374;2022-10-13T06:23:09;6.50;;;5.90;;
48861;SDS011;34681;49.188;-0.374;2022-10-13T06:25:35;8.27;;;5.70;;
48861;SDS011;34681;49.188;-0.374;2022-10-13T06:28:00;5.93;;;5.40;;
48861;SDS011;34681;49.188;-0.374;2022-10-13T06:30:26;7.40;;;5.13;;
48861;SDS011;34681;49.188;-0.374;2022-10-13T06:32:52;7.47;;;6.10;;
48861;SDS011;34681;49.188;-0.374;2022-10-13T06:35:21;6.20;;;5.60;;
48861;SDS011;34681;49.188;-0.374;2022-10-13T06:37:47;5.93;;;5.43;;
48861;SDS011;34681;49.188;-0.374;2022-10-13T06:40:13;9.47;;;5.00;;
48861;SDS011;34681;49.188;-0.374;2022-10-13T06:42:39;11.60;;;6.33;;
48861;SDS011;34681;49.188;-0.374;2022-10-13T06:45:05;6.53;;;5.20;;
48861;SDS011;34681;49.188;-0.374;2022-10-13T06:47:30;6.13;;;5.13;;
48861;SDS011;34681;49.188;-0.374;2022-10-13T06:49:56;6.67;;;4.47;;
48861;SDS011;34681;49.188;-0.374;2022-10-13T06:52:21;5.87;;;5.23;;
48861;SDS011;34681;49.188;-0.374;2022-10-13T06:54:46;7.33;;;4.93;;
48861;SDS011;34681;49.188;-0.374;2022-10-13T06:57:12;9.73;;;5.30;;
48861;SDS011;34681;49.188;-0.374;2022-10-13T06:59:37;7.23;;;4.80;;
48861;SDS011;34681;49.188;-0.374;2022-10-13T07:02:02;10.00;;;5.20;;
48861;SDS011;34681;49.188;-0.374;2022-10-13T07:04:28;6.80;;;4.47;;
48861;SDS011;34681;49.188;-0.374;2022-10-13T07:06:53;5.90;;;4.80;;
48861;SDS011;34681;49.188;-0.374;2022-10-13T07:09:19;4.60;;;4.10;;
48861;SDS011;34681;49.188;-0.374;2022-10-13T07:11:44;7.33;;;4.77;;
48861;SDS011;34681;49.188;-0.374;2022-10-13T07:14:11;4.63;;;4.03;;
48861;SDS011;34681;49.188;-0.374;2022-10-13T07:16:37;7.63;;;5.37;;
48861;SDS011;34681;49.188;-0.374;2022-10-13T07:19:03;4.77;;;4.00;;
48861;SDS011;34681;49.188;-0.374;2022-10-13T07:21:28;4.77;;;4.07;;
48861;SDS011;34681;49.188;-0.374;2022-10-13T07:23:53;5.83;;;3.40;;
48861;SDS011;34681;49.188;-0.374;2022-10-13T07:26:19;4.33;;;3.40;;
48861;SDS011;34681;49.188;-0.374;2022-10-13T07:28:44;5.47;;;3.87;;
48861;SDS011;34681;49.188;-0.374;2022-10-13T07:31:11;10.17;;;4.30;;
48861;SDS011;34681;49.188;-0.374;2022-10-13T07:33:39;6.60;;;4.60;;
48861;SDS011;34681;49.188;-0.374;2022-10-13T07:36:06;6.83;;;3.60;;
48861;SDS011;34681;49.188;-0.374;2022-10-13T07:38:31;6.90;;;4.33;;
48861;SDS011;34681;49.188;-0.374;2022-10-13T07:41:00;5.30;;;3.83;;
48861;SDS011;34681;49.188;-0.374;2022-10-13T07:43:28;5.83;;;3.73;;
48861;SDS011;34681;49.188;-0.374;2022-10-13T07:45:53;5.37;;;3.93;;
48861;SDS011;34681;49.188;-0.374;2022-10-13T07:48:19;4.33;;;3.43;;
48861;SDS011;34681;49.188;-0.374;2022-10-13T07:50:44;5.20;;;3.80;;
48861;SDS011;34681;49.188;-0.374;2022-10-13T07:53:09;5.20;;;3.00;;
48861;SDS011;34681;49.188;-0.374;2022-10-13T07:55:35;6.60;;;3.63;;
48861;SDS011;34681;49.188;-0.374;2022-10-13T07:58:00;3.13;;;2.83;;
48861;SDS011;34681;49.188;-0.374;2022-10-13T08:00:26;9.67;;;4.20;;
48861;SDS011;34681;49.188;-0.374;2022-10-13T08:02:52;9.77;;;3.80;;
48861;SDS011;34681;49.188;-0.374;2022-10-13T08:05:17;6.90;;;3.10;;
48861;SDS011;34681;49.188;-0.374;2022-10-13T08:07:43;4.17;;;3.00;;
48861;SDS011;34681;49.188;-0.374;2022-10-13T08:10:08;7.90;;;3.47;;
48861;SDS011;34681;49.188;-0.374;2022-10-13T08:12:34;4.63;;;3.03;;
48861;SDS011;34681;49.188;-0.374;2022-10-13T08:15:00;4.63;;;3.00;;
48861;SDS011;34681;49.188;-0.374;2022-10-13T08:17:26;6.10;;;3.50;;
48861;SDS011;34681;49.188;-0.374;2022-10-13T08:19:51;6.13;;;3.40;;
48861;SDS011;34681;49.188;-0.374;2022-10-13T08:22:16;4.43;;;3.27;;
48861;SDS011;34681;49.188;-0.374;2022-10-13T08:24:42;4.23;;;3.83;;
48861;SDS011;34681;49.188;-0.374;2022-10-13T08:27:09;5.70;;;3.80;;
48861;SDS011;34681;49.188;-0.374;2022-10-13T08:29:37;4.70;;;3.63;;
48861;SDS011;34681;49.188;-0.374;2022-10-13T08:32:02;5.00;;;3.57;;
48861;SDS011;34681;49.188;-0.374;2022-10-13T08:34:28;5.73;;;3.80;;
48861;SDS011;34681;49.188;-0.374;2022-10-13T08:36:53;3.87;;;3.57;;
48861;SDS011;34681;49.188;-0.374;2022-10-13T08:39:21;4.77;;;3.50;;
48861;SDS011;34681;49.188;-0.374;2022-10-13T08:41:48;6.60;;;4.20;;
48861;SDS011;34681;49.188;-0.374;2022-10-13T08:47:09;5.67;;;4.00;;
48861;SDS011;34681;49.188;-0.374;2022-10-13T08:49:37;4.67;;;4.07;;
48861;SDS011;34681;49.188;-0.374;2022-10-13T08:52:05;7.50;;;4.53;;
48861;SDS011;34681;49.188;-0.374;2022-10-13T08:54:30;5.07;;;3.47;;
48861;SDS011;34681;49.188;-0.374;2022-10-13T08:56:57;7.97;;;3.80;;
48861;SDS011;34681;49.188;-0.374;2022-10-13T08:59:23;5.50;;;3.77;;
48861;SDS011;34681;49.188;-0.374;2022-10-13T09:01:48;4.60;;;4.20;;
48861;SDS011;34681;49.188;-0.374;2022-10-13T09:09:38;4.43;;;4.03;;
48861;SDS011;34681;49.188;-0.374;2022-10-13T09:12:04;5.93;;;4.07;;
48861;SDS011;34681;49.188;-0.374;2022-10-13T09:14:33;6.27;;;4.53;;
48861;SDS011;34681;49.188;-0.374;2022-10-13T09:17:17;5.97;;;4.53;;
48861;SDS011;34681;49.188;-0.374;2022-10-13T09:19:56;7.57;;;4.27;;
48861;SDS011;34681;49.188;-0.374;2022-10-13T09:25:26;5.57;;;4.53;;
48861;SDS011;34681;49.188;-0.374;2022-10-13T09:27:53;11.00;;;3.80;;
48861;SDS011;34681;49.188;-0.374;2022-10-13T09:33:20;4.73;;;3.50;;
48861;SDS011;34681;49.188;-0.374;2022-10-13T09:35:49;7.47;;;4.50;;
48861;SDS011;34681;49.188;-0.374;2022-10-13T09:38:30;4.77;;;4.30;;
48861;SDS011;34681;49.188;-0.374;2022-10-13T09:43:30;6.43;;;4.80;;
48861;SDS011;34681;49.188;-0.374;2022-10-13T09:51:57;4.43;;;4.03;;
48861;SDS011;34681;49.188;-0.374;2022-10-13T09:54:46;4.87;;;4.00;;
48861;SDS011;34681;49.188;-0.374;2022-10-13T09:57:27;4.83;;;3.33;;
48861;SDS011;34681;49.188;-0.374;2022-10-13T10:05:27;6.27;;;4.50;;
48861;SDS011;34681;49.188;-0.374;2022-10-13T10:07:56;3.83;;;3.53;;
48861;SDS011;34681;49.188;-0.374;2022-10-13T10:10:29;5.47;;;3.80;;
48861;SDS011;34681;49.188;-0.374;2022-10-13T10:12:57;4.50;;;3.50;;
48861;SDS011;34681;49.188;-0.374;2022-10-13T10:15:25;4.30;;;3.80;;
48861;SDS011;34681;49.188;-0.374;2022-10-13T10:18:15;3.10;;;2.90;;
48861;SDS011;34681;49.188;-0.374;2022-10-13T10:20:58;4.40;;;4.00;;
48861;SDS011;34681;49.188;-0.374;2022-10-13T10:23:41;3.23;;;2.93;;
48861;SDS011;34681;49.188;-0.374;2022-10-13T10:31:23;3.30;;;3.00;;
48861;SDS011;34681;49.188;-0.374;2022-10-13T10:34:06;2.70;;;2.50;;
48861;SDS011;34681;49.188;-0.374;2022-10-13T10:44:45;2.97;;;2.77;;
48861;SDS011;34681;49.188;-0.374;2022-10-13T10:47:23;3.50;;;2.60;;
48861;SDS011;34681;49.188;-0.374;2022-10-13T10:49:52;2.77;;;2.57;;
48861;SDS011;34681;49.188;-0.374;2022-10-13T10:52:27;3.33;;;2.73;;
48861;SDS011;34681;49.188;-0.374;2022-10-13T10:55:18;2.40;;;2.10;;
48861;SDS011;34681;49.188;-0.374;2022-10-13T11:00:58;2.70;;;2.50;;
48861;SDS011;34681;49.188;-0.374;2022-10-13T11:08:41;2.60;;;2.50;;
48861;SDS011;34681;49.188;-0.374;2022-10-13T11:13:56;4.23;;;2.90;;
48861;SDS011;34681;49.188;-0.374;2022-10-13T11:27:41;2.57;;;2.37;;
48861;SDS011;34681;49.188;-0.374;2022-10-13T11:29:51;2.40;;;2.20;;
48861;SDS011;34681;49.188;-0.374;2022-10-13T11:34:59;5.53;;;2.20;;
48861;SDS011;34681;49.188;-0.374;2022-10-13T11:37:43;3.57;;;2.80;;
48861;SDS011;34681;49.188;-0.374;2022-10-13T11:40:33;2.90;;;2.70;;
48861;SDS011;34681;49.188;-0.374;2022-10-13T11:53:54;2.70;;;2.60;;
48861;SDS011;34681;49.188;-0.374;2022-10-13T11:56:33;1.93;;;1.83;;
48861;SDS011;34681;49.188;-0.374;2022-10-13T11:59:30;2.43;;;2.20;;
48861;SDS011;34681;49.188;-0.374;2022-10-13T12:01:58;2.23;;;2.13;;
48861;SDS011;34681;49.188;-0.374;2022-10-13T12:04:25;2.17;;;1.97;;
48861;SDS011;34681;49.188;-0.374;2022-10-13T12:06:53;2.93;;;2.30;;
48861;SDS011;34681;49.188;-0.374;2022-10-13T12:09:21;2.40;;;2.00;;
48861;SDS011;34681;49.188;-0.374;2022-10-13T12:11:54;2.17;;;2.03;;
48861;SDS011;34681;49.188;-0.374;2022-10-13T12:14:29;1.80;;;1.70;;
48861;SDS011;34681;49.188;-0.374;2022-10-13T12:17:16;4.03;;;2.33;;
48861;SDS011;34681;49.188;-0.374;2022-10-13T12:19:52;2.23;;;2.10;;
48861;SDS011;34681;49.188;-0.374;2022-10-13T12:22:19;2.60;;;2.40;;
48861;SDS011;34681;49.188;-0.374;2022-10-13T12:24:58;3.57;;;3.00;;
48861;SDS011;34681;49.188;-0.374;2022-10-13T12:27:25;2.67;;;2.10;;
48861;SDS011;34681;49.188;-0.374;2022-10-13T12:29:52;2.90;;;2.30;;
48861;SDS011;34681;49.188;-0.374;2022-10-13T12:32:22;3.20;;;2.47;;
48861;SDS011;34681;49.188;-0.374;2022-10-13T12:35:08;1.77;;;1.67;;
48861;SDS011;34681;49.188;-0.374;2022-10-13T12:37:39;1.97;;;1.80;;
48861;SDS011;34681;49.188;-0.374;2022-10-13T12:40:05;2.10;;;1.90;;
48861;SDS011;34681;49.188;-0.374;2022-10-13T12:42:37;5.10;;;2.10;;
48861;SDS011;34681;49.188;-0.374;2022-10-13T12:45:03;5.33;;;2.60;;
48861;SDS011;34681;49.188;-0.374;2022-10-13T12:50:50;2.07;;;1.90;;
48861;SDS011;34681;49.188;-0.374;2022-10-13T12:55:31;2.50;;;1.70;;
48861;SDS011;34681;49.188;-0.374;2022-10-13T12:57:57;2.87;;;2.00;;
48861;SDS011;34681;49.188;-0.374;2022-10-13T13:00:24;1.73;;;1.63;;
48861;SDS011;34681;49.188;-0.374;2022-10-13T13:02:58;3.17;;;1.60;;
48861;SDS011;34681;49.188;-0.374;2022-10-13T13:08:25;1.40;;;1.40;;
48861;SDS011;34681;49.188;-0.374;2022-10-13T13:10:59;1.90;;;1.80;;
48861;SDS011;34681;49.188;-0.374;2022-10-13T13:13:30;2.10;;;2.00;;
48861;SDS011;34681;49.188;-0.374;2022-10-13T13:16:11;1.70;;;1.60;;
48861;SDS011;34681;49.188;-0.374;2022-10-13T13:18:45;1.60;;;1.50;;
48861;SDS011;34681;49.188;-0.374;2022-10-13T13:21:15;1.87;;;1.50;;
48861;SDS011;34681;49.188;-0.374;2022-10-13T13:23:43;1.77;;;1.50;;
48861;SDS011;34681;49.188;-0.374;2022-10-13T13:26:12;2.20;;;2.10;;
48861;SDS011;34681;49.188;-0.374;2022-10-13T13:28:41;1.70;;;1.60;;
48861;SDS011;34681;49.188;-0.374;2022-10-13T13:31:12;1.50;;;1.40;;
48861;SDS011;34681;49.188;-0.374;2022-10-13T13:33:39;1.90;;;1.80;;
48861;SDS011;34681;49.188;-0.374;2022-10-13T13:36:07;1.97;;;1.87;;
48861;SDS011;34681;49.188;-0.374;2022-10-13T13:38:39;2.27;;;1.80;;
48861;SDS011;34681;49.188;-0.374;2022-10-13T13:41:04;1.90;;;1.80;;
48861;SDS011;34681;49.188;-0.374;2022-10-13T13:43:29;1.70;;;1.60;;
48861;SDS011;34681;49.188;-0.374;2022-10-13T13:45:55;1.77;;;1.67;;
48861;SDS011;34681;49.188;-0.374;2022-10-13T13:48:20;2.53;;;2.13;;
48861;SDS011;34681;49.188;-0.374;2022-10-13T13:50:46;2.27;;;2.17;;
48861;SDS011;34681;49.188;-0.374;2022-10-13T13:53:11;2.17;;;2.07;;
48861;SDS011;34681;49.188;-0.374;2022-10-13T13:55:36;2.13;;;1.93;;
48861;SDS011;34681;49.188;-0.374;2022-10-13T13:58:02;1.93;;;1.83;;
48861;SDS011;34681;49.188;-0.374;2022-10-13T14:00:27;1.83;;;1.73;;
48861;SDS011;34681;49.188;-0.374;2022-10-13T14:02:53;1.93;;;1.83;;
48861;SDS011;34681;49.188;-0.374;2022-10-13T14:05:20;2.37;;;2.27;;
48861;SDS011;34681;49.188;-0.374;2022-10-13T14:07:45;2.30;;;2.20;;
48861;SDS011;34681;49.188;-0.374;2022-10-13T14:10:11;3.53;;;2.43;;
48861;SDS011;34681;49.188;-0.374;2022-10-13T14:12:36;1.90;;;1.80;;
48861;SDS011;34681;49.188;-0.374;2022-10-13T14:15:02;2.10;;;2.00;;
48861;SDS011;34681;49.188;-0.374;2022-10-13T14:17:28;2.63;;;2.50;;
48861;SDS011;34681;49.188;-0.374;2022-10-13T14:19:54;2.73;;;2.53;;
48861;SDS011;34681;49.188;-0.374;2022-10-13T14:22:19;3.27;;;2.87;;
48861;SDS011;34681;49.188;-0.374;2022-10-13T14:24:45;3.70;;;3.40;;
48861;SDS011;34681;49.188;-0.374;2022-10-13T14:27:10;4.80;;;3.20;;
48861;SDS011;34681;49.188;-0.374;2022-10-13T14:29:36;4.30;;;2.60;;
48861;SDS011;34681;49.188;-0.374;2022-10-13T14:32:01;5.77;;;3.20;;
48861;SDS011;34681;49.188;-0.374;2022-10-13T14:34:27;2.63;;;2.47;;
48861;SDS011;34681;49.188;-0.374;2022-10-13T14:36:53;3.03;;;2.73;;
48861;SDS011;34681;49.188;-0.374;2022-10-13T14:39:18;5.90;;;3.13;;
48861;SDS011;34681;49.188;-0.374;2022-10-13T14:41:43;4.40;;;2.87;;
48861;SDS011;34681;49.188;-0.374;2022-10-13T14:44:10;3.70;;;2.50;;
48861;SDS011;34681;49.188;-0.374;2022-10-13T14:46:37;4.97;;;2.73;;
48861;SDS011;34681;49.188;-0.374;2022-10-13T14:49:03;2.83;;;2.63;;
48861;SDS011;34681;49.188;-0.374;2022-10-13T14:51:28;5.90;;;3.07;;
48861;SDS011;34681;49.188;-0.374;2022-10-13T14:53:53;3.90;;;2.73;;
48861;SDS011;34681;49.188;-0.374;2022-10-13T14:56:23;3.07;;;2.60;;
48861;SDS011;34681;49.188;-0.374;2022-10-13T14:58:51;3.97;;;2.37;;
48861;SDS011;34681;49.188;-0.374;2022-10-13T15:01:18;2.40;;;2.20;;
48861;SDS011;34681;49.188;-0.374;2022-10-13T15:03:43;2.90;;;1.97;;
48861;SDS011;34681;49.188;-0.374;2022-10-13T15:06:13;2.47;;;2.27;;
48861;SDS011;34681;49.188;-0.374;2022-10-13T15:08:43;1.90;;;1.80;;
48861;SDS011;34681;49.188;-0.374;2022-10-13T15:11:09;1.90;;;1.80;;
48861;SDS011;34681;49.188;-0.374;2022-10-13T15:13:35;2.53;;;2.43;;
48861;SDS011;34681;49.188;-0.374;2022-10-13T15:16:01;3.20;;;3.00;;
48861;SDS011;34681;49.188;-0.374;2022-10-13T15:18:28;2.60;;;2.50;;
48861;SDS011;34681;49.188;-0.374;2022-10-13T15:20:57;2.20;;;2.10;;
48861;SDS011;34681;49.188;-0.374;2022-10-13T15:23:22;2.63;;;2.53;;
48861;SDS011;34681;49.188;-0.374;2022-10-13T15:25:52;3.03;;;2.83;;
48861;SDS011;34681;49.188;-0.374;2022-10-13T15:28:27;2.70;;;2.50;;
48861;SDS011;34681;49.188;-0.374;2022-10-13T15:30:57;1.80;;;1.70;;
48861;SDS011;34681;49.188;-0.374;2022-10-13T15:33:23;2.00;;;1.90;;
48861;SDS011;34681;49.188;-0.374;2022-10-13T15:35:49;2.20;;;2.00;;
48861;SDS011;34681;49.188;-0.374;2022-10-13T15:38:16;3.50;;;3.20;;
48861;SDS011;34681;49.188;-0.374;2022-10-13T15:40:42;3.67;;;3.37;;
48861;SDS011;34681;49.188;-0.374;2022-10-13T15:43:08;4.33;;;3.93;;
48861;SDS011;34681;49.188;-0.374;2022-10-13T15:45:33;3.93;;;3.70;;
48861;SDS011;34681;49.188;-0.374;2022-10-13T15:47:59;3.60;;;3.30;;
48861;SDS011;34681;49.188;-0.374;2022-10-13T15:50:25;3.53;;;3.33;;
48861;SDS011;34681;49.188;-0.374;2022-10-13T15:52:51;5.10;;;3.70;;
48861;SDS011;34681;49.188;-0.374;2022-10-13T15:55:16;3.10;;;2.90;;
48861;SDS011;34681;49.188;-0.374;2022-10-13T15:57:42;3.20;;;3.00;;
48861;SDS011;34681;49.188;-0.374;2022-10-13T16:00:09;3.50;;;3.20;;
48861;SDS011;34681;49.188;-0.374;2022-10-13T16:02:36;3.77;;;3.40;;
48861;SDS011;34681;49.188;-0.374;2022-10-13T16:05:02;3.43;;;3.13;;
48861;SDS011;34681;49.188;-0.374;2022-10-13T16:07:29;2.70;;;2.60;;
48861;SDS011;34681;49.188;-0.374;2022-10-13T16:09:56;3.43;;;3.13;;
48861;SDS011;34681;49.188;-0.374;2022-10-13T16:12:21;3.37;;;3.17;;
48861;SDS011;34681;49.188;-0.374;2022-10-13T16:14:48;4.67;;;4.27;;
48861;SDS011;34681;49.188;-0.374;2022-10-13T16:17:13;2.97;;;2.80;;
48861;SDS011;34681;49.188;-0.374;2022-10-13T16:19:39;2.40;;;2.30;;
48861;SDS011;34681;49.188;-0.374;2022-10-13T16:22:04;2.20;;;2.00;;
48861;SDS011;34681;49.188;-0.374;2022-10-13T16:24:29;2.67;;;2.47;;